Time;durP1;ratioP1;P1;durP2;ratioP2;P2;SDS_P1;SDS_P2;PMS_P1;PMS_P2;Temp;Humidity;BMP_temperature;BMP_pressure;BME280_temperature;BME280_humidity;BME280_pressure;Samples;Min_cycle;Max_cycle;Signal;HPM_P1;HPM_P2
2023/04/30 00:00:09;;;;;;;79.93;35.90;;;8.60;99.90;;;;;;5026953;28;20030;-65
2023/04/30 00:02:35;;;;;;;84.45;36.25;;;8.50;99.90;;;;;;5033794;28;20025;-67
2023/04/30 00:05:00;;;;;;;87.47;37.60;;;8.40;99.90;;;;;;5030569;28;20045;-67
2023/04/30 00:07:26;;;;;;;82.13;36.17;;;8.30;99.90;;;;;;5032735;28;20460;-67
2023/04/30 00:09:51;;;;;;;79.20;35.53;;;8.20;99.90;;;;;;5028858;28;20084;-66
2023/04/30 00:12:17;;;;;;;85.63;37.97;;;8.20;99.90;;;;;;5031077;28;20515;-66
2023/04/30 00:14:43;;;;;;;94.03;37.53;;;8.20;99.90;;;;;;5027915;28;20029;-64
2023/04/30 00:17:08;;;;;;;94.93;39.08;;;8.20;99.90;;;;;;5032138;28;20025;-65
2023/04/30 00:19:34;;;;;;;99.90;39.55;;;8.20;99.90;;;;;;5030968;28;20025;-65
2023/04/30 00:22:02;;;;;;;89.55;37.42;;;8.10;99.90;;;;;;5030195;28;20029;-67
2023/04/30 00:24:28;;;;;;;86.10;37.70;;;8.00;99.90;;;;;;5031950;28;20059;-67
2023/04/30 00:26:53;;;;;;;84.80;37.83;;;8.00;99.90;;;;;;5030779;28;20127;-67
2023/04/30 00:29:19;;;;;;;84.28;36.40;;;8.10;99.90;;;;;;5030295;28;20029;-65
2023/04/30 00:31:44;;;;;;;81.43;38.20;;;8.00;99.90;;;;;;5027761;28;20408;-65
2023/04/30 00:34:10;;;;;;;92.10;37.22;;;8.00;99.90;;;;;;5027188;28;20029;-66
2023/04/30 00:36:36;;;;;;;85.75;36.83;;;7.90;99.90;;;;;;5030821;28;20025;-65
2023/04/30 00:39:01;;;;;;;89.57;37.28;;;7.90;99.90;;;;;;5028575;28;20030;-64
2023/04/30 00:41:28;;;;;;;89.40;36.47;;;7.90;99.90;;;;;;5029831;28;20100;-65
2023/04/30 00:43:53;;;;;;;88.22;35.97;;;7.80;99.90;;;;;;5028678;28;20048;-66
2023/04/30 00:46:19;;;;;;;88.32;37.72;;;7.80;99.90;;;;;;5030555;28;20037;-66
2023/04/30 00:48:44;;;;;;;90.30;39.00;;;7.80;99.90;;;;;;5027561;28;20501;-66
2023/04/30 00:51:10;;;;;;;96.20;38.88;;;7.70;99.90;;;;;;5031286;28;20059;-66
2023/04/30 00:53:38;;;;;;;93.78;38.28;;;7.70;99.90;;;;;;5028859;28;20087;-66
2023/04/30 00:56:05;;;;;;;91.90;37.60;;;7.70;99.90;;;;;;5034021;28;20516;-67
2023/04/30 00:58:31;;;;;;;93.72;37.50;;;7.70;99.90;;;;;;5030413;28;20061;-65
2023/04/30 01:00:57;;;;;;;91.90;39.05;;;7.60;99.90;;;;;;5025987;28;20037;-66
2023/04/30 01:03:23;;;;;;;85.45;36.63;;;7.60;99.90;;;;;;5028893;28;20033;-67
2023/04/30 01:05:49;;;;;;;86.75;35.40;;;7.60;99.90;;;;;;5028480;28;20150;-67
2023/04/30 01:08:14;;;;;;;83.30;36.42;;;7.70;99.90;;;;;;5029231;28;20033;-67
2023/04/30 01:11:20;;;;;;;82.75;35.72;;;7.70;99.90;;;;;;5028534;28;20528;-67
2023/04/30 01:13:58;;;;;;;78.22;33.88;;;7.70;99.90;;;;;;4994022;28;20038;-66
2023/04/30 01:16:32;;;;;;;78.68;32.88;;;7.70;99.90;;;;;;5027067;28;20095;-66
2023/04/30 01:19:02;;;;;;;80.93;34.00;;;7.80;99.90;;;;;;5026808;28;20036;-66
2023/04/30 01:21:32;;;;;;;79.10;33.80;;;7.80;99.90;;;;;;5028772;28;20083;-66
2023/04/30 01:24:45;;;;;;;76.82;33.15;;;7.90;99.90;;;;;;5027514;28;20041;-66
2023/04/30 01:27:48;;;;;;;67.43;31.58;;;7.80;99.90;;;;;;4991137;28;20039;-67
2023/04/30 01:30:15;;;;;;;63.67;28.67;;;7.80;99.90;;;;;;5028470;28;20428;-65
2023/04/30 01:32:41;;;;;;;71.95;31.67;;;7.90;99.90;;;;;;5030797;28;20627;-67
2023/04/30 01:35:07;;;;;;;64.57;29.70;;;7.80;99.90;;;;;;5026536;28;20065;-67
2023/04/30 01:37:35;;;;;;;61.65;29.33;;;7.80;99.90;;;;;;5028812;28;20030;-67
2023/04/30 01:40:04;;;;;;;68.97;29.45;;;7.70;99.90;;;;;;5023963;28;20034;-66
2023/04/30 01:42:35;;;;;;;64.40;29.52;;;7.60;99.90;;;;;;5026761;28;20029;-67
2023/04/30 01:45:18;;;;;;;65.63;29.60;;;7.50;99.90;;;;;;5023855;28;20493;-67
2023/04/30 01:47:50;;;;;;;68.88;29.75;;;7.40;99.90;;;;;;5031151;28;20118;-66
2023/04/30 01:50:36;;;;;;;65.95;29.77;;;7.40;99.90;;;;;;5020757;28;20030;-66
2023/04/30 01:53:05;;;;;;;72.50;30.85;;;7.30;99.90;;;;;;5030103;28;20022;-66
2023/04/30 01:55:33;;;;;;;66.38;29.25;;;7.30;99.90;;;;;;5031354;28;20022;-66
2023/04/30 01:58:01;;;;;;;69.72;31.38;;;7.30;99.90;;;;;;5030375;28;20547;-65
2023/04/30 02:00:31;;;;;;;65.40;28.55;;;7.30;99.90;;;;;;5026277;28;20144;-67
2023/04/30 02:02:58;;;;;;;59.13;27.55;;;7.30;99.90;;;;;;5026127;28;20049;-67
2023/04/30 02:05:23;;;;;;;68.95;29.52;;;7.20;99.90;;;;;;5029106;28;20325;-67
2023/04/30 02:07:50;;;;;;;65.05;29.67;;;7.20;99.90;;;;;;5032595;28;20079;-65
2023/04/30 02:10:18;;;;;;;63.45;29.30;;;7.10;99.90;;;;;;5032247;28;20128;-66
2023/04/30 02:12:43;;;;;;;63.13;29.13;;;7.10;99.90;;;;;;5033121;28;20037;-66
2023/04/30 02:15:09;;;;;;;64.40;29.17;;;7.00;99.90;;;;;;5029665;28;20033;-66
2023/04/30 02:17:35;;;;;;;70.68;29.10;;;7.10;99.90;;;;;;5035040;28;20018;-65
2023/04/30 02:20:01;;;;;;;64.13;29.50;;;7.00;99.90;;;;;;5034810;28;20412;-66
2023/04/30 02:22:26;;;;;;;70.72;29.52;;;7.10;99.90;;;;;;5031578;28;20473;-68
2023/04/30 02:24:56;;;;;;;67.10;28.65;;;7.10;99.90;;;;;;5034274;28;20029;-66
2023/04/30 02:27:23;;;;;;;64.25;29.55;;;7.00;99.90;;;;;;5037615;28;20027;-66
2023/04/30 02:29:49;;;;;;;64.55;27.58;;;7.00;99.90;;;;;;5034890;28;20048;-67
2023/04/30 02:32:14;;;;;;;63.65;27.58;;;7.00;99.90;;;;;;5030311;28;20041;-66
2023/04/30 02:34:40;;;;;;;61.50;27.85;;;6.90;99.90;;;;;;5038284;28;20052;-67
2023/04/30 02:37:06;;;;;;;56.03;27.42;;;6.80;99.90;;;;;;5037015;28;20029;-67
2023/04/30 02:39:32;;;;;;;62.45;26.02;;;6.80;99.90;;;;;;5035055;28;20026;-66
2023/04/30 02:41:58;;;;;;;61.25;28.77;;;6.80;99.90;;;;;;5032440;28;20017;-66
2023/04/30 02:44:23;;;;;;;67.78;29.02;;;6.70;99.90;;;;;;5027570;28;20417;-67
2023/04/30 02:46:49;;;;;;;59.45;28.13;;;6.70;99.90;;;;;;5031236;28;20039;-66
2023/04/30 02:49:15;;;;;;;58.08;28.55;;;6.70;99.90;;;;;;5034109;28;20025;-67
2023/04/30 02:51:41;;;;;;;62.05;27.80;;;6.70;99.90;;;;;;5031515;28;20485;-65
2023/04/30 02:54:06;;;;;;;60.53;26.48;;;6.60;99.90;;;;;;5034620;28;20038;-67
2023/04/30 02:56:32;;;;;;;56.15;26.00;;;6.60;99.90;;;;;;5031432;28;20067;-66
2023/04/30 02:58:57;;;;;;;63.35;28.48;;;6.60;99.90;;;;;;5032062;28;20030;-67
2023/04/30 03:01:23;;;;;;;60.28;27.58;;;6.70;99.90;;;;;;5030937;28;20029;-66
2023/04/30 03:03:48;;;;;;;61.50;27.15;;;6.70;99.90;;;;;;5031118;28;20037;-66
2023/04/30 03:06:14;;;;;;;57.95;26.60;;;6.70;99.90;;;;;;5028184;28;20026;-65
2023/04/30 03:08:39;;;;;;;53.83;23.55;;;6.60;99.90;;;;;;5029013;28;20048;-67
2023/04/30 03:11:05;;;;;;;54.92;25.80;;;6.50;99.90;;;;;;5030878;28;20034;-66
2023/04/30 03:13:30;;;;;;;63.35;28.08;;;6.50;99.90;;;;;;5031623;28;20041;-65
2023/04/30 03:15:58;;;;;;;61.90;28.27;;;6.50;99.90;;;;;;5029647;28;20021;-66
2023/04/30 03:18:23;;;;;;;54.47;25.95;;;6.60;99.90;;;;;;5046910;28;20075;-67
2023/04/30 03:20:49;;;;;;;61.50;27.60;;;6.50;99.90;;;;;;5031305;28;20056;-67
2023/04/30 03:23:14;;;;;;;57.95;25.90;;;6.40;99.90;;;;;;5029405;28;20029;-66
2023/04/30 03:25:40;;;;;;;62.58;25.73;;;6.40;99.90;;;;;;5027177;28;20017;-67
2023/04/30 03:28:05;;;;;;;58.83;26.27;;;6.30;99.90;;;;;;5033233;28;20398;-66
2023/04/30 03:30:31;;;;;;;60.92;26.50;;;6.20;99.90;;;;;;5028891;28;20090;-66
2023/04/30 03:32:56;;;;;;;58.90;24.73;;;6.20;99.90;;;;;;5030284;28;20018;-66
2023/04/30 03:35:22;;;;;;;55.30;25.63;;;6.20;99.90;;;;;;5028481;28;20087;-66
2023/04/30 03:37:47;;;;;;;58.10;25.15;;;6.30;99.90;;;;;;5032564;28;20022;-67
2023/04/30 03:40:13;;;;;;;55.50;24.27;;;6.20;99.90;;;;;;5027487;28;20030;-67
2023/04/30 03:42:39;;;;;;;58.72;26.35;;;6.10;99.90;;;;;;5027358;28;20049;-67
2023/04/30 03:45:05;;;;;;;53.78;24.27;;;6.10;99.90;;;;;;5031612;28;20038;-66
2023/04/30 03:47:30;;;;;;;53.28;23.70;;;6.10;99.90;;;;;;5031252;28;20025;-67
2023/04/30 03:49:56;;;;;;;55.33;25.27;;;6.00;99.90;;;;;;5025332;28;20083;-66
2023/04/30 03:52:21;;;;;;;52.45;24.80;;;6.00;99.90;;;;;;5029825;28;20528;-67
2023/04/30 03:54:47;;;;;;;58.63;26.00;;;5.90;99.90;;;;;;5029077;28;20028;-66
2023/04/30 03:57:13;;;;;;;68.45;26.23;;;5.90;99.90;;;;;;5030952;28;20029;-66
2023/04/30 03:59:39;;;;;;;62.75;26.48;;;5.90;99.90;;;;;;5028172;28;20017;-67
2023/04/30 04:02:07;;;;;;;52.67;22.38;;;6.00;99.90;;;;;;5026507;28;20029;-66
2023/04/30 04:04:33;;;;;;;53.08;23.63;;;6.10;99.90;;;;;;5026684;28;20033;-66
2023/04/30 04:06:59;;;;;;;50.92;23.42;;;6.20;99.90;;;;;;5032325;28;20033;-66
2023/04/30 04:09:25;;;;;;;52.83;23.05;;;6.20;99.90;;;;;;5030213;28;20040;-64
2023/04/30 04:11:50;;;;;;;55.20;23.95;;;6.10;99.90;;;;;;5043467;28;20405;-66
2023/04/30 04:14:16;;;;;;;56.13;24.55;;;6.10;99.90;;;;;;5026054;28;20041;-65
2023/04/30 04:16:41;;;;;;;50.45;22.38;;;6.20;99.90;;;;;;5027359;28;20030;-66
2023/04/30 04:19:07;;;;;;;46.40;22.08;;;6.20;99.90;;;;;;5027662;28;20029;-67
2023/04/30 04:21:33;;;;;;;56.13;23.55;;;6.20;99.90;;;;;;5028165;28;20017;-67
2023/04/30 04:23:58;;;;;;;46.75;22.48;;;6.20;99.90;;;;;;5031089;28;20033;-65
2023/04/30 04:26:24;;;;;;;47.60;22.50;;;6.20;99.90;;;;;;5032681;28;20088;-66
2023/04/30 04:28:50;;;;;;;44.42;21.55;;;6.20;99.90;;;;;;5035099;28;20026;-66
2023/04/30 04:31:16;;;;;;;49.95;22.08;;;6.10;99.90;;;;;;5030520;28;20099;-66
2023/04/30 04:33:43;;;;;;;49.30;22.33;;;6.00;99.90;;;;;;5029511;28;20120;-65
2023/04/30 04:36:08;;;;;;;48.75;22.20;;;5.90;99.90;;;;;;5035301;28;20395;-65
2023/04/30 04:38:34;;;;;;;47.67;23.13;;;6.00;99.90;;;;;;5028701;28;20030;-66
2023/04/30 04:40:59;;;;;;;51.63;24.00;;;6.00;99.90;;;;;;5033258;28;20032;-65
2023/04/30 04:43:25;;;;;;;47.85;22.60;;;6.00;99.90;;;;;;5031655;28;20049;-65
2023/04/30 04:45:51;;;;;;;52.30;22.77;;;6.00;99.90;;;;;;5027665;28;20017;-67
2023/04/30 04:48:16;;;;;;;49.45;24.73;;;6.00;99.90;;;;;;5027944;28;20057;-66
2023/04/30 04:50:42;;;;;;;50.40;22.70;;;5.90;99.90;;;;;;5030005;28;20030;-66
2023/04/30 04:53:08;;;;;;;55.05;24.50;;;5.90;99.90;;;;;;5027985;28;20539;-66
2023/04/30 04:55:33;;;;;;;60.42;26.58;;;5.80;99.90;;;;;;5030340;28;20037;-65
2023/04/30 04:57:59;;;;;;;52.92;24.95;;;5.80;99.90;;;;;;5030823;28;20029;-66
2023/04/30 05:00:25;;;;;;;57.38;23.23;;;5.80;99.90;;;;;;5027733;28;20033;-66
2023/04/30 05:02:50;;;;;;;62.33;26.92;;;5.90;99.90;;;;;;5025935;28;20098;-65
2023/04/30 05:05:16;;;;;;;53.92;24.55;;;5.90;99.90;;;;;;5045051;28;20059;-65
2023/04/30 05:07:41;;;;;;;56.00;25.58;;;5.90;99.90;;;;;;5028373;28;20065;-66
2023/04/30 05:10:08;;;;;;;59.35;25.67;;;5.90;99.90;;;;;;5027720;28;20041;-66
2023/04/30 05:12:33;;;;;;;53.58;24.52;;;6.00;99.90;;;;;;5026940;28;20033;-65
2023/04/30 05:14:59;;;;;;;60.58;26.73;;;6.10;99.90;;;;;;5029340;28;20033;-64
2023/04/30 05:17:25;;;;;;;58.10;25.33;;;6.10;99.90;;;;;;5032479;28;20025;-64
2023/04/30 05:19:51;;;;;;;56.63;24.40;;;6.10;99.90;;;;;;5025604;28;20029;-65
2023/04/30 05:22:16;;;;;;;57.38;24.90;;;6.20;99.90;;;;;;5030330;28;20022;-66
2023/04/30 05:24:42;;;;;;;56.80;25.60;;;6.30;99.90;;;;;;5030334;28;20650;-65
2023/04/30 05:27:08;;;;;;;57.00;25.55;;;6.40;99.90;;;;;;5029319;28;20190;-66
2023/04/30 05:29:34;;;;;;;60.95;26.33;;;6.40;99.90;;;;;;5029312;28;20026;-66
2023/04/30 05:32:00;;;;;;;60.67;25.58;;;6.50;99.90;;;;;;5028507;28;20481;-66
2023/04/30 05:34:26;;;;;;;50.38;24.65;;;6.60;99.90;;;;;;5029749;28;20021;-65
2023/04/30 05:36:52;;;;;;;62.28;25.90;;;6.70;99.90;;;;;;5027898;28;20564;-66
2023/04/30 05:39:17;;;;;;;59.35;24.73;;;6.70;99.90;;;;;;5028171;28;20448;-66
2023/04/30 05:41:43;;;;;;;57.75;25.60;;;6.80;99.90;;;;;;5029778;28;21615;-65
2023/04/30 05:44:08;;;;;;;69.78;27.67;;;6.90;99.90;;;;;;5032491;28;20033;-66
2023/04/30 05:46:34;;;;;;;68.88;25.95;;;7.00;99.90;;;;;;5035243;28;20539;-65
2023/04/30 05:49:00;;;;;;;67.95;29.23;;;7.10;99.90;;;;;;5036337;28;20037;-65
2023/04/30 05:51:26;;;;;;;67.38;28.67;;;7.20;99.90;;;;;;5033081;28;20029;-66
2023/04/30 05:53:52;;;;;;;74.53;30.15;;;7.30;99.90;;;;;;5034516;28;20417;-65
2023/04/30 05:56:17;;;;;;;63.45;28.08;;;7.40;99.90;;;;;;5031795;28;20053;-65
2023/04/30 05:58:43;;;;;;;60.00;27.38;;;7.50;99.90;;;;;;5032676;28;20025;-66
2023/04/30 06:01:09;;;;;;;69.75;31.60;;;7.60;99.90;;;;;;5028080;28;20489;-66
2023/04/30 06:03:36;;;;;;;68.13;29.45;;;7.70;99.90;;;;;;5029762;28;20040;-65
2023/04/30 06:06:01;;;;;;;72.97;31.30;;;7.70;99.90;;;;;;5028069;28;20378;-65
2023/04/30 06:08:28;;;;;;;60.92;27.98;;;7.80;99.90;;;;;;5030867;28;20052;-65
2023/04/30 06:10:54;;;;;;;63.60;29.58;;;7.90;99.90;;;;;;5029564;28;20038;-58
2023/04/30 06:13:19;;;;;;;63.25;28.92;;;8.00;99.90;;;;;;5032746;28;20025;-57
2023/04/30 06:15:45;;;;;;;65.57;30.40;;;8.10;99.90;;;;;;5033916;28;20041;-58
2023/04/30 06:18:13;;;;;;;60.80;26.38;;;8.20;99.90;;;;;;5031104;28;20060;-58
2023/04/30 06:20:38;;;;;;;61.60;28.67;;;8.20;99.90;;;;;;5029291;28;20033;-57
2023/04/30 06:23:04;;;;;;;63.08;28.25;;;8.30;99.90;;;;;;5036640;28;20523;-58
2023/04/30 06:25:30;;;;;;;62.05;28.40;;;8.40;99.90;;;;;;5033494;28;20105;-55
2023/04/30 06:27:55;;;;;;;60.65;26.73;;;8.50;99.90;;;;;;5033575;28;20020;-57
2023/04/30 06:30:21;;;;;;;58.53;28.67;;;8.50;99.90;;;;;;5029341;28;20448;-59
2023/04/30 06:32:47;;;;;;;51.78;25.95;;;8.60;99.90;;;;;;5029600;28;20120;-58
2023/04/30 06:35:12;;;;;;;52.33;25.02;;;8.70;99.90;;;;;;5028881;28;20025;-54
2023/04/30 06:37:38;;;;;;;62.65;23.70;;;8.70;99.90;;;;;;5023083;28;20019;-58
2023/04/30 06:40:05;;;;;;;50.42;24.00;;;8.80;99.90;;;;;;5029489;28;20040;-57
2023/04/30 06:42:33;;;;;;;46.38;22.95;;;8.90;99.90;;;;;;5032032;28;20755;-57
2023/04/30 06:45:02;;;;;;;49.00;22.33;;;9.00;99.90;;;;;;5029377;28;20108;-58
2023/04/30 06:47:33;;;;;;;53.53;23.90;;;9.10;99.90;;;;;;5027349;28;20485;-56
2023/04/30 06:49:59;;;;;;;45.63;21.05;;;9.10;99.90;;;;;;5030818;28;20060;-59
2023/04/30 06:52:25;;;;;;;41.33;21.23;;;9.20;99.90;;;;;;5025952;28;20037;-58
2023/04/30 06:54:51;;;;;;;43.13;19.33;;;9.30;99.90;;;;;;5027779;28;20051;-56
2023/04/30 06:57:16;;;;;;;41.60;19.88;;;9.30;99.90;;;;;;5029134;28;20017;-57
2023/04/30 06:59:43;;;;;;;39.42;19.45;;;9.40;99.90;;;;;;5031327;28;20026;-60
2023/04/30 07:02:08;;;;;;;36.08;19.30;;;9.50;99.90;;;;;;5028236;28;20025;-58
2023/04/30 07:04:34;;;;;;;38.97;20.55;;;9.50;99.90;;;;;;5031287;28;20436;-57
2023/04/30 07:07:01;;;;;;;35.30;17.92;;;9.60;99.90;;;;;;5028323;28;20123;-55
2023/04/30 07:09:27;;;;;;;42.80;21.50;;;9.80;99.90;;;;;;5030797;28;20034;-59
2023/04/30 07:11:53;;;;;;;33.22;18.45;;;9.90;99.90;;;;;;5026670;28;20039;-58
2023/04/30 07:14:20;;;;;;;39.38;18.33;;;10.00;99.90;;;;;;5031161;28;20115;-60
2023/04/30 07:16:45;;;;;;;36.50;18.38;;;10.10;99.90;;;;;;5028312;28;20573;-57
2023/04/30 07:19:11;;;;;;;36.08;18.83;;;10.10;99.90;;;;;;5030188;28;20108;-58
2023/04/30 07:21:37;;;;;;;34.10;17.17;;;10.20;99.90;;;;;;5025493;28;20428;-59
2023/04/30 07:24:02;;;;;;;33.95;17.50;;;10.30;99.90;;;;;;5026637;28;20504;-60
2023/04/30 07:26:28;;;;;;;37.10;18.92;;;10.30;99.90;;;;;;5023170;28;20025;-60
2023/04/30 07:28:54;;;;;;;31.10;17.15;;;10.40;99.90;;;;;;5029905;28;20029;-59
2023/04/30 07:31:20;;;;;;;30.95;16.83;;;10.50;99.90;;;;;;5025828;28;20022;-59
2023/04/30 07:33:46;;;;;;;36.28;16.50;;;10.60;99.90;;;;;;5028685;28;20460;-60
2023/04/30 07:36:11;;;;;;;29.67;16.40;;;10.70;99.90;;;;;;5026397;28;20052;-60
2023/04/30 07:38:37;;;;;;;34.50;16.88;;;10.80;99.90;;;;;;5029596;28;20029;-59
2023/04/30 07:41:03;;;;;;;32.28;17.70;;;11.00;99.90;;;;;;5026185;28;20450;-58
2023/04/30 07:43:29;;;;;;;34.25;16.67;;;11.00;99.90;;;;;;5026781;28;20025;-59
2023/04/30 07:45:55;;;;;;;25.15;15.45;;;11.10;99.90;;;;;;5028456;28;20033;-59
2023/04/30 07:48:21;;;;;;;29.67;14.55;;;11.20;99.90;;;;;;5028232;28;20030;-58
2023/04/30 07:50:47;;;;;;;27.25;15.40;;;11.30;99.90;;;;;;5025150;28;20080;-58
2023/04/30 07:53:12;;;;;;;39.50;16.70;;;11.40;99.90;;;;;;5026369;28;20548;-60
2023/04/30 07:55:38;;;;;;;32.50;16.50;;;11.50;99.90;;;;;;5028392;28;20136;-58
2023/04/30 07:58:04;;;;;;;25.52;14.57;;;11.50;99.90;;;;;;5027735;28;20077;-58
2023/04/30 08:00:30;;;;;;;29.05;14.60;;;11.60;99.90;;;;;;5025970;28;20036;-58
2023/04/30 08:02:56;;;;;;;31.63;14.05;;;11.70;99.90;;;;;;5029317;28;20025;-58
2023/04/30 08:05:22;;;;;;;27.52;14.48;;;11.80;99.90;;;;;;5026382;28;20067;-58
2023/04/30 08:07:47;;;;;;;24.45;13.70;;;11.90;99.90;;;;;;5027950;28;20030;-59
2023/04/30 08:10:13;;;;;;;28.75;12.77;;;12.00;99.90;;;;;;5028202;28;20034;-58
2023/04/30 08:12:38;;;;;;;22.33;13.25;;;12.10;99.90;;;;;;5026031;28;20025;-58
2023/04/30 08:15:06;;;;;;;25.08;13.18;;;12.20;99.90;;;;;;5022300;28;20035;-58
2023/04/30 08:17:32;;;;;;;26.67;13.95;;;12.40;99.90;;;;;;5025933;28;20029;-58
2023/04/30 08:19:58;;;;;;;31.40;14.18;;;12.40;99.90;;;;;;5020954;28;20029;-56
2023/04/30 08:22:24;;;;;;;27.45;13.05;;;12.50;99.90;;;;;;5022821;28;20512;-58
2023/04/30 08:24:49;;;;;;;30.65;12.43;;;12.60;99.90;;;;;;5032296;28;20099;-58
2023/04/30 08:27:15;;;;;;;25.63;13.27;;;12.70;99.90;;;;;;5026110;28;20025;-58
2023/04/30 08:29:41;;;;;;;25.75;11.52;;;12.70;99.90;;;;;;5034448;28;20033;-57
2023/04/30 08:32:07;;;;;;;23.35;11.55;;;12.80;99.90;;;;;;5024157;28;20038;-58
2023/04/30 08:34:34;;;;;;;20.80;10.15;;;12.90;99.90;;;;;;5027182;28;20041;-59
2023/04/30 08:37:00;;;;;;;20.13;9.30;;;13.00;99.90;;;;;;5026785;28;20029;-58
2023/04/30 08:39:26;;;;;;;18.98;9.32;;;13.00;99.90;;;;;;5028165;28;20282;-59
2023/04/30 08:41:55;;;;;;;14.27;8.27;;;13.10;99.90;;;;;;5025083;28;20108;-59
2023/04/30 08:44:25;;;;;;;22.33;8.95;;;13.20;99.90;;;;;;5031000;28;20026;-55
2023/04/30 08:46:55;;;;;;;25.30;10.60;;;13.20;99.90;;;;;;5035209;28;20028;-60
2023/04/30 08:49:21;;;;;;;19.75;10.25;;;13.30;99.90;;;;;;5021943;28;20029;-57
2023/04/30 08:51:48;;;;;;;21.17;10.63;;;13.50;99.90;;;;;;5028736;28;20524;-59
2023/04/30 08:54:14;;;;;;;15.75;8.35;;;13.60;99.90;;;;;;5025941;28;20128;-59
2023/04/30 08:56:40;;;;;;;18.33;8.73;;;13.70;99.90;;;;;;5026238;28;20018;-60
2023/04/30 08:59:06;;;;;;;16.40;7.75;;;13.80;99.90;;;;;;5025225;28;20035;-58
2023/04/30 09:01:33;;;;;;;10.20;6.80;;;13.90;99.90;;;;;;5020156;28;20051;-58
2023/04/30 09:04:01;;;;;;;12.73;6.28;;;14.00;99.90;;;;;;5027518;28;20029;-58
2023/04/30 09:06:27;;;;;;;14.27;6.95;;;14.10;99.90;;;;;;5026979;28;20040;-58
2023/04/30 09:08:53;;;;;;;13.05;7.80;;;14.20;99.90;;;;;;5030689;28;20032;-61
2023/04/30 09:11:26;;;;;;;14.20;8.05;;;14.40;99.90;;;;;;5029773;28;20047;-58
2023/04/30 09:13:57;;;;;;;14.60;8.63;;;14.60;99.90;;;;;;5030101;28;20118;-59
2023/04/30 09:16:24;;;;;;;12.82;7.50;;;14.80;99.90;;;;;;5019810;28;20116;-57
2023/04/30 09:18:51;;;;;;;14.95;7.15;;;15.00;99.90;;;;;;5021190;28;20033;-59
2023/04/30 09:21:29;;;;;;;9.63;5.68;;;15.20;99.90;;;;;;5024736;28;20022;-55
2023/04/30 09:24:00;;;;;;;10.25;5.75;;;15.30;99.90;;;;;;5030577;28;20400;-57
2023/04/30 09:26:36;;;;;;;15.48;6.07;;;15.40;99.90;;;;;;5025471;28;20032;-59
2023/04/30 09:29:06;;;;;;;8.85;5.18;;;15.60;99.90;;;;;;5024390;28;20397;-60
2023/04/30 09:31:36;;;;;;;17.63;7.88;;;15.80;99.90;;;;;;5032444;28;20022;-60
2023/04/30 09:34:03;;;;;;;11.07;6.00;;;15.80;99.90;;;;;;5028824;28;20059;-59
2023/04/30 09:36:30;;;;;;;10.65;5.97;;;15.90;99.90;;;;;;5025040;28;20033;-60
2023/04/30 09:38:56;;;;;;;9.10;5.45;;;16.00;99.90;;;;;;5025495;28;20171;-57
2023/04/30 09:41:22;;;;;;;10.07;5.30;;;16.00;99.90;;;;;;5027556;28;20096;-58
2023/04/30 09:43:48;;;;;;;8.70;3.67;;;16.00;99.90;;;;;;5022397;28;20056;-59
2023/04/30 09:46:13;;;;;;;9.70;4.88;;;16.00;99.90;;;;;;5039399;28;20029;-58
2023/04/30 09:48:40;;;;;;;7.18;4.35;;;16.10;99.90;;;;;;5026610;28;20079;-59
2023/04/30 09:51:06;;;;;;;8.75;4.32;;;16.10;99.90;;;;;;5023357;28;20030;-58
2023/04/30 09:53:36;;;;;;;12.23;3.90;;;16.10;99.90;;;;;;5023750;28;20119;-56
2023/04/30 09:56:07;;;;;;;10.73;5.10;;;16.10;99.90;;;;;;5026836;28;20033;-59
2023/04/30 09:58:39;;;;;;;12.80;4.10;;;16.40;99.90;;;;;;5022567;28;20033;-59
2023/04/30 10:01:10;;;;;;;6.97;4.63;;;16.70;99.90;;;;;;5025399;28;20021;-59
2023/04/30 10:03:41;;;;;;;8.32;4.82;;;16.70;99.90;;;;;;5026591;28;20172;-59
2023/04/30 10:06:07;;;;;;;10.45;3.97;;;16.90;99.90;;;;;;5020907;28;20443;-58
2023/04/30 10:08:43;;;;;;;7.40;3.95;;;17.30;99.90;;;;;;5023560;28;20030;-59
2023/04/30 10:11:15;;;;;;;7.57;3.72;;;17.40;99.90;;;;;;5023151;28;20030;-58
2023/04/30 10:14:02;;;;;;;5.40;2.80;;;17.40;99.90;;;;;;5029503;28;20038;-60
2023/04/30 10:16:38;;;;;;;8.73;3.70;;;17.40;99.90;;;;;;5019947;28;20036;-58
2023/04/30 10:19:10;;;;;;;5.80;3.17;;;17.50;99.90;;;;;;5024538;28;20292;-59
2023/04/30 10:21:40;;;;;;;3.95;2.85;;;17.70;99.90;;;;;;5018734;28;20497;-58
2023/04/30 10:24:07;;;;;;;5.93;3.42;;;17.80;99.90;;;;;;5025369;28;20029;-60
2023/04/30 10:26:33;;;;;;;6.22;3.47;;;17.90;99.90;;;;;;5029265;28;20033;-58
2023/04/30 10:29:00;;;;;;;3.95;2.83;;;18.20;99.90;;;;;;5032461;28;20563;-59
2023/04/30 10:31:26;;;;;;;3.25;2.30;;;18.10;99.90;;;;;;5023698;28;20033;-59
2023/04/30 10:33:52;;;;;;;5.43;2.00;;;18.20;99.90;;;;;;5023289;28;20416;-59
2023/04/30 10:36:44;;;;;;;3.80;1.10;;;18.50;99.90;;;;;;5028897;28;20112;-59
2023/04/30 10:39:11;;;;;;;1.73;1.00;;;18.90;99.90;;;;;;5027385;28;20444;-59
2023/04/30 10:41:37;;;;;;;3.30;1.15;;;19.10;98.30;;;;;;5026379;28;20033;-59
2023/04/30 10:44:06;;;;;;;2.95;1.08;;;19.10;99.90;;;;;;5029701;28;20037;-60
2023/04/30 10:46:35;;;;;;;3.85;1.42;;;19.30;97.20;;;;;;5025744;28;20087;-59
2023/04/30 10:49:01;;;;;;;2.20;1.27;;;19.20;96.10;;;;;;5026899;28;20037;-58
2023/04/30 10:51:57;;;;;;;3.53;1.55;;;19.10;99.90;;;;;;5028469;28;20033;-56
2023/04/30 10:54:28;;;;;;;1.55;0.90;;;19.60;99.90;;;;;;5021132;28;20033;-59
2023/04/30 10:57:09;;;;;;;1.55;1.23;;;19.40;96.80;;;;;;5028966;28;20489;-58
2023/04/30 10:59:35;;;;;;;1.08;0.98;;;19.00;95.30;;;;;;5026407;28;20099;-57
2023/04/30 11:02:01;;;;;;;2.50;0.88;;;18.80;97.50;;;;;;5027453;28;20032;-58
2023/04/30 11:04:27;;;;;;;1.58;1.00;;;19.00;97.10;;;;;;5028792;28;20041;-58
2023/04/30 11:06:59;;;;;;;1.58;1.02;;;19.10;99.90;;;;;;5035734;28;20059;-58
2023/04/30 11:09:43;;;;;;;5.38;1.00;;;18.80;99.90;;;;;;5027810;28;20034;-59
2023/04/30 11:12:12;;;;;;;2.75;0.80;;;19.10;97.70;;;;;;5022916;28;20520;-60
2023/04/30 11:14:43;;;;;;;2.38;1.35;;;19.40;97.50;;;;;;5029193;28;20040;-58
2023/04/30 11:17:10;;;;;;;1.88;1.33;;;19.10;96.40;;;;;;5025025;28;20428;-58
2023/04/30 11:19:44;;;;;;;2.63;1.00;;;18.80;96.80;;;;;;5027377;28;20103;-58
2023/04/30 11:22:10;;;;;;;1.80;1.30;;;18.40;97.30;;;;;;5031687;28;20060;-58
2023/04/30 11:25:03;;;;;;;1.88;1.08;;;18.40;99.10;;;;;;5030472;28;20037;-59
2023/04/30 11:27:33;;;;;;;3.28;1.00;;;18.80;97.40;;;;;;5033420;28;20052;-58
2023/04/30 11:30:00;;;;;;;2.40;1.10;;;19.20;97.00;;;;;;5028981;28;20481;-59
2023/04/30 11:32:32;;;;;;;5.80;1.33;;;19.90;97.20;;;;;;5029465;28;20021;-59
2023/04/30 11:35:00;;;;;;;2.08;1.27;;;20.30;96.70;;;;;;5027407;28;20047;-56
2023/04/30 11:37:31;;;;;;;2.97;1.23;;;20.40;96.20;;;;;;5030924;28;20037;-57
2023/04/30 11:40:09;;;;;;;2.17;1.10;;;20.80;93.70;;;;;;5028057;28;20036;-59
2023/04/30 11:42:38;;;;;;;1.10;1.00;;;20.80;99.90;;;;;;5028497;28;20025;-58
2023/04/30 11:45:08;;;;;;;0.70;0.70;;;21.10;93.80;;;;;;5028069;28;20500;-58
2023/04/30 11:47:52;;;;;;;2.28;0.93;;;21.30;92.60;;;;;;5029546;28;20519;-57
2023/04/30 11:50:26;;;;;;;1.67;0.90;;;21.30;91.60;;;;;;5024954;28;20072;-60
2023/04/30 11:52:52;;;;;;;1.17;1.00;;;21.30;90.90;;;;;;5029449;28;20034;-57
2023/04/30 11:55:20;;;;;;;3.63;0.90;;;21.30;92.00;;;;;;5028783;28;20485;-57
2023/04/30 11:57:48;;;;;;;1.17;1.00;;;21.30;90.70;;;;;;5029141;28;20032;-59
2023/04/30 12:00:16;;;;;;;0.90;0.80;;;21.40;90.50;;;;;;5026273;28;20026;-57
2023/04/30 12:02:44;;;;;;;1.60;1.13;;;21.80;91.20;;;;;;5030151;28;20026;-57
2023/04/30 12:05:15;;;;;;;3.25;1.00;;;21.70;90.20;;;;;;5030897;28;20032;-60
2023/04/30 12:07:56;;;;;;;1.40;1.00;;;21.40;91.90;;;;;;5027309;28;20025;-58
2023/04/30 12:10:22;;;;;;;1.88;0.90;;;21.20;90.50;;;;;;5029679;28;20021;-56
2023/04/30 12:12:49;;;;;;;2.00;0.80;;;20.80;91.00;;;;;;5026371;28;20025;-57
2023/04/30 12:15:25;;;;;;;2.60;0.90;;;20.60;91.80;;;;;;5026903;28;20543;-60
2023/04/30 12:17:52;;;;;;;1.38;1.15;;;20.90;90.80;;;;;;5029863;28;20026;-59
2023/04/30 12:20:20;;;;;;;1.17;0.63;;;21.40;91.40;;;;;;5027403;28;20374;-59
2023/04/30 12:22:46;;;;;;;2.33;0.73;;;21.90;87.10;;;;;;5026322;28;20030;-59
2023/04/30 12:25:15;;;;;;;0.80;0.80;;;21.70;90.90;;;;;;5024102;28;20029;-59
2023/04/30 12:27:44;;;;;;;1.20;0.90;;;21.20;92.20;;;;;;5026128;28;20514;-58
2023/04/30 12:30:09;;;;;;;0.70;0.70;;;21.50;93.60;;;;;;5027538;28;20147;-60
2023/04/30 12:32:38;;;;;;;2.42;0.63;;;22.00;89.50;;;;;;5023144;28;21068;-59
2023/04/30 12:35:05;;;;;;;1.50;0.80;;;21.80;86.40;;;;;;5025286;28;20080;-60
2023/04/30 12:37:31;;;;;;;2.08;0.70;;;22.50;90.30;;;;;;5027374;28;20040;-58
2023/04/30 12:39:56;;;;;;;0.98;0.75;;;23.00;90.20;;;;;;5026928;28;20029;-57